Time;durP1;ratioP1;P1;durP2;ratioP2;P2;SDS_P1;SDS_P2;PMS_P1;PMS_P2;Temp;Humidity;BMP_temperature;BMP_pressure;BME280_temperature;BME280_humidity;BME280_pressure;Samples;Min_cycle;Max_cycle;Signal;HPM_P1;HPM_P2
2022/08/16 00:02:03;;;;;;;8.70;7.85;;;;;;;;;;5093644;28;20201;-57
2022/08/16 00:04:28;;;;;;;8.55;7.70;;;;;;;;;;5093871;28;20171;-57
2022/08/16 00:06:54;;;;;;;9.07;7.70;;;;;;;22.78;76.27;97627.31;5094683;28;20203;-57
2022/08/16 00:09:21;;;;;;;9.43;7.80;;;;;;;22.78;76.18;97635.25;5094688;28;20176;-57
2022/08/16 00:11:47;;;;;;;8.40;7.60;;;;;;;22.76;76.68;97628.53;5094916;28;20182;-57
2022/08/16 00:14:18;;;;;;;8.27;7.47;;;;;;;22.74;76.96;97630.56;5095191;28;20672;-57
2022/08/16 00:16:45;;;;;;;10.73;7.53;;;;;;;22.75;76.84;97629.56;5094531;28;20621;-57
2022/08/16 00:19:13;;;;;;;9.02;8.13;;;;;;;22.73;77.28;97631.59;5094794;28;20179;-57
2022/08/16 00:21:38;;;;;;;8.15;7.45;;;;;;;22.70;77.49;97634.63;5094733;28;20176;-57
2022/08/16 00:24:04;;;;;;;8.55;7.75;;;;;;;22.74;77.13;97635.84;5093259;28;20184;-57
2022/08/16 00:26:29;;;;;;;9.98;7.72;;;;;;;22.71;77.58;97637.06;5094849;28;20175;-56
2022/08/16 00:28:55;;;;;;;9.15;7.95;;;;;;;22.58;77.58;97633.56;5094477;28;20176;-56
2022/08/16 00:31:21;;;;;;;8.65;7.80;;;;;;;22.53;78.27;97644.72;5076185;28;20249;-56
2022/08/16 00:33:46;;;;;;;8.25;7.47;;;;;;;22.36;79.43;97646.03;5094519;28;20175;-59
2022/08/16 00:36:12;;;;;;;9.52;8.13;;;;;;;22.46;79.14;97653.59;5094195;28;20179;-57
2022/08/16 00:38:37;;;;;;;8.27;7.47;;;;;;;22.46;78.51;97649.16;5094440;28;20172;-56
2022/08/16 00:41:03;;;;;;;9.30;8.40;;;;;;;22.58;78.60;97657.31;5094321;28;20556;-56
2022/08/16 00:43:35;;;;;;;9.57;8.25;;;;;;;22.80;77.57;97671.97;5094282;28;20182;-57
2022/08/16 00:46:06;;;;;;;9.18;8.38;;;;;;;22.94;76.75;97669.16;5094273;28;20156;-56
2022/08/16 00:48:32;;;;;;;9.18;8.27;;;;;;;22.87;76.30;97662.25;5094203;28;20183;-59
2022/08/16 00:51:00;;;;;;;8.43;7.53;;;;;;;23.08;75.83;97670.00;5093903;28;20237;-57
2022/08/16 00:53:26;;;;;;;10.02;8.45;;;;;;;23.14;75.36;97670.00;5093684;28;20243;-57
2022/08/16 00:55:55;;;;;;;8.60;7.80;;;;;;;23.34;74.36;97670.06;5094087;28;20183;-57
2022/08/16 00:58:25;;;;;;;9.77;8.57;;;;;;;23.34;73.59;97662.13;5094324;28;20225;-56
2022/08/16 01:00:51;;;;;;;8.27;7.50;;;;;;;23.28;73.66;97662.94;5094300;28;20175;-56
2022/08/16 01:03:18;;;;;;;9.57;8.13;;;;;;;23.07;74.24;97653.34;5093982;28;20180;-57
2022/08/16 01:05:45;;;;;;;10.38;7.63;;;;;;;23.08;75.02;97659.47;5093635;28;20640;-59
2022/08/16 01:08:12;;;;;;;9.60;8.40;;;;;;;22.98;75.61;97656.38;5093541;28;20218;-59
2022/08/16 01:10:38;;;;;;;10.18;9.05;;;;;;;22.99;75.33;97673.84;5093808;28;20179;-57
2022/08/16 01:13:08;;;;;;;9.52;8.52;;;;;;;22.99;75.09;97665.94;5093783;28;20183;-57
2022/08/16 01:15:40;;;;;;;10.45;8.65;;;;;;;22.92;75.07;97662.47;5093630;28;20194;-57
2022/08/16 01:18:08;;;;;;;9.45;8.52;;;;;;;22.86;75.96;97655.34;5093963;28;20152;-57
2022/08/16 01:20:39;;;;;;;9.70;8.50;;;;;;;22.77;76.54;97654.72;5093579;28;20210;-57
2022/08/16 01:23:13;;;;;;;10.93;8.65;;;;;;;22.66;77.54;97647.38;5093609;28;20250;-56
2022/08/16 01:25:43;;;;;;;9.48;7.88;;;;;;;22.72;77.56;97653.72;5093810;28;20168;-57
2022/08/16 01:28:14;;;;;;;8.88;8.02;;;;;;;22.72;77.35;97649.22;5093135;28;20184;-57
2022/08/16 01:30:43;;;;;;;8.45;7.65;;;;;;;22.64;78.22;97648.59;5093462;28;20273;-57
2022/08/16 01:33:09;;;;;;;9.38;8.48;;;;;;;22.48;77.38;97619.94;5093090;28;20175;-57
2022/08/16 01:35:49;;;;;;;9.70;8.73;;;;;;;22.70;77.49;97664.44;5093133;28;20229;-57
2022/08/16 01:38:19;;;;;;;10.93;8.20;;;;;;;22.76;76.98;97654.91;5093271;28;20225;-57
2022/08/16 01:40:45;;;;;;;8.68;7.88;;;;;;;22.78;77.13;97652.91;5093177;28;20266;-57
2022/08/16 01:43:10;;;;;;;9.48;8.00;;;;;;;22.86;76.67;97660.63;5092904;28;20197;-57
2022/08/16 01:45:36;;;;;;;11.00;8.93;;;;;;;22.86;76.88;97648.25;5092859;28;20172;-57
2022/08/16 01:48:02;;;;;;;12.77;9.10;;;;;;;23.06;76.74;97667.56;5092793;28;20274;-57
2022/08/16 01:50:28;;;;;;;13.73;9.07;;;;;;;23.04;78.34;97674.06;5092765;28;20691;-57
2022/08/16 01:52:53;;;;;;;11.77;9.40;;;;;;;23.05;79.28;97673.88;5092550;28;20207;-57
2022/08/16 01:55:23;;;;;;;11.60;9.52;;;;;;;23.13;79.38;97691.34;5092982;28;20176;-57
2022/08/16 01:57:49;;;;;;;10.95;8.88;;;;;;;23.11;77.71;97690.72;5092664;28;20168;-57
2022/08/16 02:00:15;;;;;;;11.20;8.68;;;;;;;23.05;76.88;97686.22;5092654;28;20176;-57
2022/08/16 02:02:41;;;;;;;9.45;7.57;;;;;;;23.15;76.20;97690.13;5092837;28;20266;-57
2022/08/16 02:05:08;;;;;;;11.02;9.00;;;;;;;23.26;77.56;97683.47;5092494;28;20652;-57
2022/08/16 02:07:34;;;;;;;11.02;8.70;;;;;;;23.18;76.62;97684.47;5092295;28;20199;-57
2022/08/16 02:10:00;;;;;;;9.85;8.52;;;;;;;23.19;74.53;97693.22;5092440;28;20199;-57
2022/08/16 02:12:30;;;;;;;9.13;8.27;;;;;;;23.12;75.23;97689.69;5092373;28;20176;-57
2022/08/16 02:14:55;;;;;;;9.48;8.15;;;;;;;23.12;74.64;97687.88;5093270;28;20188;-57
2022/08/16 02:17:21;;;;;;;9.07;8.20;;;;;;;23.15;74.29;97687.50;5092312;28;20624;-57
2022/08/16 02:19:48;;;;;;;9.75;8.75;;;;;;;23.03;74.94;97675.06;5091193;28;20640;-57
2022/08/16 02:22:17;;;;;;;9.68;8.77;;;;;;;23.17;74.49;97689.94;5090964;28;20234;-57
2022/08/16 02:24:44;;;;;;;10.27;8.48;;;;;;;23.10;75.97;97686.44;5092262;28;20648;-57
2022/08/16 02:27:09;;;;;;;9.90;8.90;;;;;;;23.12;76.11;97684.41;5092168;28;20691;-57
2022/08/16 02:29:36;;;;;;;11.07;9.18;;;;;;;23.08;77.24;97680.56;5092158;28;20176;-57
2022/08/16 02:32:02;;;;;;;9.68;8.77;;;;;;;23.05;76.04;97681.78;5092214;28;20241;-57
2022/08/16 02:34:27;;;;;;;9.15;8.25;;;;;;;23.10;75.30;97692.56;5092151;28;20283;-57
2022/08/16 02:36:53;;;;;;;10.32;8.68;;;;;;;23.09;74.67;97692.75;5092403;28;20168;-57
2022/08/16 02:39:19;;;;;;;9.43;8.43;;;;;;;22.94;75.45;97685.00;5092093;28;20171;-57
2022/08/16 02:41:47;;;;;;;8.98;8.02;;;;;;;22.81;76.30;97692.91;5092267;28;20204;-57
2022/08/16 02:44:13;;;;;;;9.55;8.57;;;;;;;22.72;76.37;97693.28;5092331;28;20641;-57
2022/08/16 02:46:41;;;;;;;8.93;7.53;;;;;;;22.74;76.16;97693.88;5093443;28;20180;-57
2022/08/16 02:49:07;;;;;;;10.95;8.60;;;;;;;22.82;74.79;97677.84;5096496;28;20175;-57
2022/08/16 02:51:32;;;;;;;8.95;8.07;;;;;;;22.94;75.99;97690.28;5096256;28;20213;-57
2022/08/16 02:53:58;;;;;;;10.02;8.88;;;;;;;22.88;77.29;97687.63;5096150;28;20682;-57
2022/08/16 02:56:24;;;;;;;9.73;8.27;;;;;;;22.69;76.58;97654.09;5096399;28;20182;-57
2022/08/16 02:58:51;;;;;;;9.52;8.52;;;;;;;22.94;75.80;97697.38;5096373;28;20329;-57
2022/08/16 03:01:22;;;;;;;9.35;8.45;;;;;;;22.85;74.44;97690.66;5096331;28;20221;-57
2022/08/16 03:03:47;;;;;;;8.75;7.80;;;;;;;22.73;74.40;97690.41;5096235;28;20174;-57
2022/08/16 03:06:17;;;;;;;9.27;8.23;;;;;;;22.61;74.92;97685.94;5095911;28;20619;-57
2022/08/16 03:08:43;;;;;;;10.35;9.20;;;;;;;22.52;76.01;97695.00;5096172;28;20187;-57
2022/08/16 03:11:09;;;;;;;10.38;9.32;;;;;;;22.43;76.53;97689.09;5096081;28;20171;-57
2022/08/16 03:13:34;;;;;;;8.75;7.95;;;;;;;22.36;77.31;97695.31;5096054;28;20180;-57
2022/08/16 03:15:59;;;;;;;10.85;8.93;;;;;;;22.29;77.60;97691.81;5095978;28;20172;-57
2022/08/16 03:18:25;;;;;;;9.23;8.32;;;;;;;22.23;78.18;97689.97;5077550;28;20189;-57
2022/08/16 03:20:50;;;;;;;12.65;9.07;;;;;;;22.14;78.99;97688.53;5096492;28;20254;-57
2022/08/16 03:23:16;;;;;;;9.63;8.68;;;;;;;22.06;79.44;97697.41;5095610;28;20628;-57
2022/08/16 03:25:41;;;;;;;9.77;8.25;;;;;;;22.13;80.06;97706.16;5096172;28;20178;-57
2022/08/16 03:28:07;;;;;;;9.40;8.50;;;;;;;22.05;79.89;97708.13;5095423;28;20188;-57
2022/08/16 03:30:34;;;;;;;10.70;9.07;;;;;;;21.97;80.95;97703.00;5095764;28;20176;-57
2022/08/16 03:33:01;;;;;;;10.15;9.10;;;;;;;21.99;81.12;97708.91;5095992;28;20652;-57
2022/08/16 03:35:29;;;;;;;10.05;9.07;;;;;;;22.00;81.06;97715.78;5095329;28;20187;-57
2022/08/16 03:37:59;;;;;;;13.48;9.10;;;;;;;22.00;80.89;97713.97;5095330;28;20206;-58
2022/08/16 03:40:25;;;;;;;11.05;9.15;;;;;;;21.77;81.16;97676.53;5095260;28;20587;-58
2022/08/16 03:42:50;;;;;;;9.98;8.98;;;;;;;21.97;81.01;97724.88;5095246;28;20182;-58
2022/08/16 03:45:16;;;;;;;10.93;9.20;;;;;;;22.11;80.73;97728.44;5095195;28;20554;-58
2022/08/16 03:47:44;;;;;;;9.10;8.30;;;;;;;22.12;80.04;97733.50;5095020;28;20741;-58
2022/08/16 03:50:10;;;;;;;9.00;7.60;;;;;;;22.11;79.77;97734.53;5095103;28;20186;-57
2022/08/16 03:52:35;;;;;;;12.60;9.88;;;;;;;22.10;79.75;97739.97;5094895;28;20227;-58
2022/08/16 03:55:03;;;;;;;10.40;9.40;;;;;;;22.07;80.58;97732.44;5095027;28;20762;-57
2022/08/16 03:57:31;;;;;;;11.57;9.13;;;;;;;21.90;80.58;97713.50;5094861;28;20199;-57
2022/08/16 03:59:56;;;;;;;11.73;9.20;;;;;;;22.16;79.49;97734.75;5095167;28;20656;-57
2022/08/16 04:02:22;;;;;;;10.35;9.35;;;;;;;22.33;78.46;97741.31;5095169;28;20203;-58
2022/08/16 04:04:48;;;;;;;15.13;10.13;;;;;;;22.37;78.29;97747.06;5094787;28;20172;-57
2022/08/16 04:07:15;;;;;;;10.27;9.27;;;;;;;22.40;77.79;97746.63;5094648;28;20200;-58
2022/08/16 04:09:41;;;;;;;10.43;9.32;;;;;;;22.42;77.83;97739.34;5094750;28;20606;-57
2022/08/16 04:12:09;;;;;;;9.77;8.88;;;;;;;22.37;77.54;97752.31;5094658;28;20171;-57
2022/08/16 04:14:34;;;;;;;10.02;9.00;;;;;;;22.32;77.91;97738.91;5094647;28;20180;-57
2022/08/16 04:17:00;;;;;;;9.75;8.75;;;;;;;22.39;77.53;97732.66;5094578;28;20172;-58
2022/08/16 04:19:26;;;;;;;11.80;8.85;;;;;;;22.40;77.39;97744.00;5094525;28;20208;-57
2022/08/16 04:21:53;;;;;;;11.27;8.80;;;;;;;22.21;78.58;97732.34;5095068;28;20168;-58
2022/08/16 04:24:19;;;;;;;10.13;9.15;;;;;;;22.34;77.94;97739.50;5094349;28;20229;-57
2022/08/16 04:26:44;;;;;;;10.45;9.40;;;;;;;22.37;78.29;97736.50;5094346;28;20582;-57
2022/08/16 04:29:10;;;;;;;10.45;9.38;;;;;;;22.53;77.17;97728.28;5094296;28;20183;-57
2022/08/16 04:31:36;;;;;;;10.25;8.90;;;;;;;22.53;77.13;97731.75;5094566;28;20176;-58
2022/08/16 04:34:01;;;;;;;10.02;9.13;;;;;;;22.55;77.53;97726.28;5094085;28;20172;-57
2022/08/16 04:36:27;;;;;;;9.50;8.40;;;;;;;22.63;77.09;97729.56;5094476;28;20171;-57
2022/08/16 04:38:54;;;;;;;10.10;8.65;;;;;;;22.68;77.00;97723.69;5094160;28;20179;-58
2022/08/16 04:41:20;;;;;;;10.02;9.02;;;;;;;22.67;77.27;97725.50;5094318;28;20187;-58
2022/08/16 04:43:45;;;;;;;9.48;8.57;;;;;;;22.70;76.87;97726.94;5094036;28;20636;-57
2022/08/16 04:46:13;;;;;;;10.80;8.60;;;;;;;22.82;76.27;97733.25;5094058;28;20189;-57
2022/08/16 04:48:40;;;;;;;9.93;8.80;;;;;;;22.80;76.35;97732.66;5093914;28;20585;-57
2022/08/16 04:51:06;;;;;;;10.98;9.27;;;;;;;22.82;76.30;97733.25;5093785;28;20179;-57
2022/08/16 04:53:32;;;;;;;9.95;8.95;;;;;;;22.88;75.53;97740.38;5093843;28;20192;-58
2022/08/16 04:55:57;;;;;;;9.93;8.85;;;;;;;22.93;75.39;97743.25;5093806;28;20225;-57
2022/08/16 04:58:22;;;;;;;9.93;8.45;;;;;;;23.01;75.93;97749.16;5093770;28;20620;-57
2022/08/16 05:00:48;;;;;;;11.90;8.95;;;;;;;23.19;75.06;97756.56;5093703;28;20180;-57
2022/08/16 05:03:13;;;;;;;11.82;9.20;;;;;;;23.33;74.80;97752.91;5093921;28;20183;-58
2022/08/16 05:05:40;;;;;;;11.50;9.23;;;;;;;23.45;73.77;97746.03;5093817;28;20167;-57
2022/08/16 05:08:06;;;;;;;10.98;8.93;;;;;;;23.61;72.45;97751.72;5093326;28;20580;-58
2022/08/16 05:10:32;;;;;;;10.15;9.00;;;;;;;23.67;72.91;97745.66;5092988;28;20171;-57
2022/08/16 05:12:59;;;;;;;10.27;9.18;;;;;;;23.73;73.34;97750.94;5092455;28;20191;-57
2022/08/16 05:15:25;;;;;;;10.70;8.73;;;;;;;23.81;73.13;97757.84;5092984;28;20180;-59
2022/08/16 05:17:51;;;;;;;12.27;9.35;;;;;;;23.86;72.98;97753.56;5092485;28;20183;-59
2022/08/16 05:20:17;;;;;;;10.80;9.15;;;;;;;23.91;72.64;97746.88;5093636;28;20175;-59
2022/08/16 05:22:42;;;;;;;11.35;9.00;;;;;;;24.10;71.60;97757.44;5093330;28;20176;-58
2022/08/16 05:25:09;;;;;;;11.50;9.25;;;;;;;24.18;69.77;97760.69;5093247;28;20171;-59
2022/08/16 05:27:36;;;;;;;11.80;9.45;;;;;;;24.17;69.45;97760.09;5093360;28;20203;-59
2022/08/16 05:30:03;;;;;;;10.70;8.93;;;;;;;24.13;69.97;97761.53;5093450;28;20263;-59
2022/08/16 05:32:28;;;;;;;9.77;8.77;;;;;;;23.95;69.77;97735.69;5093382;28;20180;-59
2022/08/16 05:34:54;;;;;;;9.80;8.90;;;;;;;24.09;70.48;97759.28;5093100;28;20184;-59
2022/08/16 05:37:22;;;;;;;9.48;8.57;;;;;;;24.15;69.90;97758.44;5093287;28;20250;-59
2022/08/16 05:39:48;;;;;;;9.95;9.05;;;;;;;24.15;69.55;97749.72;5093254;28;20258;-59
2022/08/16 05:42:13;;;;;;;14.15;8.98;;;;;;;24.13;69.58;97744.63;5092902;28;20680;-59
2022/08/16 05:44:39;;;;;;;9.35;8.45;;;;;;;24.18;69.23;97736.06;5092961;28;20176;-58
2022/08/16 05:47:04;;;;;;;10.45;9.55;;;;;;;24.12;70.15;97734.25;5092231;28;20199;-58
2022/08/16 05:49:30;;;;;;;10.80;9.50;;;;;;;24.17;70.06;97737.91;5090828;28;20180;-59
2022/08/16 05:51:58;;;;;;;11.15;9.57;;;;;;;24.19;69.35;97735.88;5091267;28;20195;-58
2022/08/16 05:54:24;;;;;;;10.65;9.63;;;;;;;24.24;69.66;97741.34;5092710;28;20357;-59
2022/08/16 05:56:49;;;;;;;11.05;9.30;;;;;;;24.38;68.79;97756.16;5092621;28;20281;-59
2022/08/16 05:59:17;;;;;;;11.38;9.75;;;;;;;24.46;68.31;97755.13;5092927;28;20229;-59
2022/08/16 06:01:49;;;;;;;9.70;8.75;;;;;;;24.56;68.26;97760.81;5093201;28;20175;-59
2022/08/16 06:04:16;;;;;;;9.63;8.70;;;;;;;24.52;68.78;97759.59;5092806;28;20167;-58
2022/08/16 06:06:43;;;;;;;10.10;9.02;;;;;;;24.38;69.11;97761.44;5093000;28;20183;-58
2022/08/16 06:09:10;;;;;;;9.65;8.70;;;;;;;24.52;68.45;97757.78;5093055;28;20680;-59
2022/08/16 06:11:35;;;;;;;11.40;9.40;;;;;;;24.64;67.74;97745.56;5092419;28;20187;-59
2022/08/16 06:14:01;;;;;;;11.45;9.85;;;;;;;24.68;67.32;97745.94;5092711;28;20175;-59
2022/08/16 06:16:26;;;;;;;10.35;9.25;;;;;;;24.80;67.12;97750.38;5092366;28;20201;-59
2022/08/16 06:18:52;;;;;;;10.50;9.50;;;;;;;24.94;66.42;97741.34;5092355;28;20167;-59
2022/08/16 06:21:17;;;;;;;12.90;10.32;;;;;;;25.00;65.82;97739.69;5091495;28;20225;-59
2022/08/16 06:23:42;;;;;;;10.63;9.63;;;;;;;25.00;65.92;97739.69;5092463;28;20172;-58
2022/08/16 06:26:08;;;;;;;12.40;9.82;;;;;;;25.05;65.99;97745.97;5092212;28;20175;-59
2022/08/16 06:28:34;;;;;;;10.35;9.25;;;;;;;25.27;65.32;97757.09;5092297;28;20608;-58
2022/08/16 06:31:00;;;;;;;10.25;9.23;;;;;;;25.31;65.17;97753.00;5092190;28;20204;-58
2022/08/16 06:33:25;;;;;;;10.80;9.80;;;;;;;25.46;64.82;97740.25;5092128;28;20172;-59
2022/08/16 06:35:52;;;;;;;10.23;9.13;;;;;;;25.57;64.97;97740.38;5092407;28;20187;-58
2022/08/16 06:38:18;;;;;;;11.10;9.10;;;;;;;25.65;63.47;97742.75;5092139;28;20255;-59
2022/08/16 06:40:43;;;;;;;10.13;9.05;;;;;;;25.57;63.83;97728.94;5092023;28;20233;-59
2022/08/16 06:43:09;;;;;;;10.13;9.13;;;;;;;25.74;63.41;97738.00;5092076;28;20176;-59
2022/08/16 06:45:39;;;;;;;12.68;9.32;;;;;;;25.72;63.66;97730.25;5091978;28;20206;-59
2022/08/16 06:48:05;;;;;;;11.00;9.88;;;;;;;25.80;63.63;97742.44;5090673;28;20204;-58
2022/08/16 06:50:32;;;;;;;11.60;9.68;;;;;;;25.82;63.39;97735.88;5091188;28;20178;-58
2022/08/16 06:52:59;;;;;;;11.82;9.43;;;;;;;25.96;63.55;97729.47;5091817;28;20636;-58
2022/08/16 06:55:25;;;;;;;14.07;9.43;;;;;;;26.12;62.27;97726.25;5091972;28;20203;-58
2022/08/16 06:57:51;;;;;;;10.88;9.55;;;;;;;26.22;61.93;97709.81;5091935;28;20255;-58
2022/08/16 07:00:17;;;;;;;10.27;9.23;;;;;;;26.41;61.19;97720.22;5091906;28;20176;-58
2022/08/16 07:02:43;;;;;;;10.77;9.80;;;;;;;26.35;61.70;97722.97;5092154;28;20563;-58
2022/08/16 07:05:11;;;;;;;9.75;8.88;;;;;;;26.51;60.43;97722.34;5092271;28;20187;-58
2022/08/16 07:07:38;;;;;;;9.93;8.93;;;;;;;26.61;60.44;97718.22;5091761;28;20208;-58
2022/08/16 07:10:06;;;;;;;10.00;9.07;;;;;;;26.73;59.56;97735.00;5091836;28;20167;-58
2022/08/16 07:12:31;;;;;;;9.80;8.65;;;;;;;26.81;58.89;97732.03;5092035;28;20172;-57
2022/08/16 07:14:56;;;;;;;10.85;9.45;;;;;;;26.84;59.07;97736.91;5091795;28;20546;-57
2022/08/16 07:17:23;;;;;;;13.70;9.70;;;;;;;26.90;58.90;97732.53;5091984;28;20168;-58
2022/08/16 07:19:49;;;;;;;10.45;9.55;;;;;;;26.99;58.74;97729.34;5091653;28;20180;-58
2022/08/16 07:22:16;;;;;;;11.43;9.52;;;;;;;27.16;58.63;97730.38;5091935;28;20190;-58
2022/08/16 07:24:44;;;;;;;10.25;9.23;;;;;;;27.35;58.36;97723.16;5073808;28;20193;-58
2022/08/16 07:27:10;;;;;;;12.43;10.00;;;;;;;27.47;57.92;97724.78;5091578;28;20206;-58
2022/08/16 07:29:36;;;;;;;12.02;10.13;;;;;;;27.57;58.01;97726.91;5091631;28;20183;-58
2022/08/16 07:32:03;;;;;;;13.48;9.80;;;;;;;27.56;57.68;97731.41;5092025;28;20555;-58
2022/08/16 07:34:28;;;;;;;10.73;9.48;;;;;;;27.62;57.60;97719.03;5095947;28;20183;-58
2022/08/16 07:36:53;;;;;;;24.77;22.23;;;;;;;27.75;57.96;97724.97;5095677;28;20172;-58
2022/08/16 07:39:19;;;;;;;11.73;10.63;;;;;;;27.90;57.33;97716.56;5095897;28;20184;-58
2022/08/16 07:41:44;;;;;;;12.77;11.23;;;;;;;28.08;56.38;97725.25;5095379;28;20179;-58
2022/08/16 07:44:10;;;;;;;11.82;9.65;;;;;;;28.09;56.47;97732.19;5095291;28;20167;-58
2022/08/16 07:46:35;;;;;;;11.77;10.18;;;;;;;28.19;55.00;97735.06;5095374;28;20212;-58
2022/08/16 07:49:03;;;;;;;12.48;10.13;;;;;;;28.23;54.32;97733.53;5095702;28;20197;-58
2022/08/16 07:51:30;;;;;;;13.20;9.57;;;;;;;28.30;54.09;97730.78;5094992;28;20198;-58
2022/08/16 07:53:56;;;;;;;11.88;10.00;;;;;;;28.36;54.24;97736.00;5095189;28;20203;-58
2022/08/16 07:56:21;;;;;;;12.50;10.23;;;;;;;28.44;54.81;97733.00;5095292;28;20237;-58
2022/08/16 07:58:47;;;;;;;11.27;10.18;;;;;;;28.57;53.87;97735.38;5095254;28;20172;-58
2022/08/16 08:01:12;;;;;;;10.18;9.23;;;;;;;28.69;52.79;97736.16;5095176;28;20183;-58
2022/08/16 08:03:40;;;;;;;11.38;8.63;;;;;;;28.80;52.37;97730.00;5094868;28;20203;-58
2022/08/16 08:06:06;;;;;;;10.52;9.05;;;;;;;28.93;52.71;97726.28;5094705;28;20176;-58
2022/08/16 08:08:31;;;;;;;12.05;7.93;;;;;;;29.04;50.36;97725.44;5094962;28;20195;-58
2022/08/16 08:10:57;;;;;;;8.88;8.05;;;;;;;29.17;48.43;97728.66;5095031;28;20176;-58
2022/08/16 08:13:22;;;;;;;8.65;7.75;;;;;;;29.19;47.99;97717.72;5094710;28;20324;-58
2022/08/16 08:15:48;;;;;;;7.95;7.10;;;;;;;29.30;47.21;97720.34;5094668;28;20191;-58
2022/08/16 08:18:14;;;;;;;9.57;7.72;;;;;;;29.41;47.48;97719.47;5094536;28;20259;-58
2022/08/16 08:20:43;;;;;;;11.00;7.82;;;;;;;29.49;47.46;97721.72;5094833;28;20201;-58
2022/08/16 08:23:11;;;;;;;8.73;7.20;;;;;;;29.54;46.03;97719.19;5094520;28;20259;-58
2022/08/16 08:25:38;;;;;;;11.85;8.00;;;;;;;29.57;46.10;97721.34;5094690;28;20184;-58
2022/08/16 08:28:04;;;;;;;9.10;8.20;;;;;;;29.66;46.42;97729.78;5076237;28;20673;-58
2022/08/16 08:30:30;;;;;;;8.35;7.55;;;;;;;29.74;45.47;97732.84;5094316;28;20184;-58
2022/08/16 08:32:56;;;;;;;9.23;7.93;;;;;;;29.72;44.93;97724.28;5094657;28;20204;-58
2022/08/16 08:35:21;;;;;;;10.32;7.93;;;;;;;29.82;44.51;97721.78;5094576;28;20190;-58
2022/08/16 08:37:47;;;;;;;12.23;7.70;;;;;;;29.83;45.31;97731.41;5094582;28;20644;-58
2022/08/16 08:40:12;;;;;;;9.60;7.95;;;;;;;29.82;44.80;97719.13;5094426;28;20179;-58
2022/08/16 08:42:42;;;;;;;12.50;7.80;;;;;;;29.85;44.53;97721.28;5094399;28;20639;-59
2022/08/16 08:45:09;;;;;;;11.80;8.50;;;;;;;29.90;44.44;97721.38;5093165;28;20185;-58
2022/08/16 08:47:35;;;;;;;9.45;7.22;;;;;;;30.01;44.37;97733.00;5094183;28;20686;-58
2022/08/16 08:50:01;;;;;;;8.77;7.97;;;;;;;30.07;43.85;97730.16;5094030;28;20233;-58
2022/08/16 08:52:27;;;;;;;8.23;7.43;;;;;;;30.11;43.59;97725.19;5093803;28;20336;-58
2022/08/16 08:54:53;;;;;;;10.02;8.55;;;;;;;30.17;44.80;97725.03;5093897;28;20636;-58
2022/08/16 08:57:19;;;;;;;8.75;7.80;;;;;;;30.19;44.50;97732.78;5094411;28;20172;-57
2022/08/16 08:59:47;;;;;;;9.38;8.07;;;;;;;30.19;43.28;97720.22;5094056;28;20175;-58
2022/08/16 09:02:15;;;;;;;9.15;8.20;;;;;;;30.25;43.64;97727.25;5094324;28;20176;-58
2022/08/16 09:04:44;;;;;;;9.52;8.40;;;;;;;30.26;44.28;97728.88;5093908;28;20175;-59
2022/08/16 09:07:10;;;;;;;8.80;8.00;;;;;;;30.34;43.95;97732.97;5093591;28;20267;-59
2022/08/16 09:09:36;;;;;;;8.65;7.85;;;;;;;30.43;43.46;97726.97;5093937;28;20282;-59
2022/08/16 09:12:03;;;;;;;10.02;8.32;;;;;;;30.47;42.46;97729.94;5093829;28;20213;-59
2022/08/16 09:14:31;;;;;;;9.15;7.93;;;;;;;30.47;42.21;97736.13;5093539;28;20195;-59
2022/08/16 09:16:57;;;;;;;8.70;7.80;;;;;;;30.54;41.99;97738.63;5093425;28;20178;-59
2022/08/16 09:19:22;;;;;;;8.52;7.47;;;;;;;30.58;41.47;97734.38;5094002;28;20176;-59
2022/08/16 09:21:49;;;;;;;9.43;7.90;;;;;;;30.62;41.94;97749.69;5093651;28;20198;-59
2022/08/16 09:24:18;;;;;;;8.18;7.30;;;;;;;30.67;42.59;97747.06;5093251;28;20195;-58
2022/08/16 09:26:43;;;;;;;8.52;7.55;;;;;;;30.68;42.61;97737.22;5093315;28;20176;-59
2022/08/16 09:29:09;;;;;;;8.52;7.65;;;;;;;30.67;41.80;97733.72;5093262;28;20199;-58
2022/08/16 09:31:34;;;;;;;7.82;7.13;;;;;;;30.73;42.60;97726.59;5093161;28;20176;-58
2022/08/16 09:34:02;;;;;;;7.88;7.07;;;;;;;30.78;41.47;97730.13;5093941;28;20571;-59
2022/08/16 09:36:28;;;;;;;9.35;6.72;;;;;;;30.91;40.85;97727.09;5093369;28;20285;-58
2022/08/16 09:38:55;;;;;;;6.47;5.88;;;;;;;30.94;39.13;97715.06;5093350;28;20179;-58
2022/08/16 09:41:21;;;;;;;7.05;6.35;;;;;;;31.06;39.11;97726.44;5093008;28;20183;-59
2022/08/16 09:43:46;;;;;;;6.05;5.45;;;;;;;31.11;38.27;97724.63;5093261;28;20172;-58
2022/08/16 09:46:12;;;;;;;7.28;6.57;;;;;;;31.11;39.80;97719.28;5092971;28;20187;-59
2022/08/16 09:48:40;;;;;;;6.28;5.85;;;;;;;31.17;39.12;97720.13;5092855;28;20612;-59
2022/08/16 09:51:10;;;;;;;9.10;5.90;;;;;;;31.23;38.83;97717.28;5092717;28;20199;-59
2022/08/16 09:53:36;;;;;;;6.63;6.03;;;;;;;31.36;38.60;97716.09;5093227;28;20192;-59
2022/08/16 09:56:06;;;;;;;6.22;5.72;;;;;;;31.44;38.56;97719.09;5092676;28;20168;-58
2022/08/16 09:58:32;;;;;;;6.22;5.72;;;;;;;31.50;38.57;97718.09;5092457;28;20195;-59
2022/08/16 10:00:57;;;;;;;6.85;6.25;;;;;;;31.55;38.68;97704.78;5091314;28;20198;-59
2022/08/16 10:03:23;;;;;;;6.50;5.90;;;;;;;31.63;38.74;97709.63;5092658;28;20621;-59
2022/08/16 10:05:49;;;;;;;7.05;5.75;;;;;;;31.72;37.89;97705.44;5092856;28;20172;-59
2022/08/16 10:08:17;;;;;;;6.43;5.93;;;;;;;31.80;38.08;97704.19;5092544;28;20203;-59
2022/08/16 10:13:10;;;;;;;8.63;6.10;;;;;;;31.91;37.23;97709.34;5092536;28;20171;-59
2022/08/16 10:13:32;;;;;;;6.85;5.35;;;;;;;32.02;36.92;97705.69;5092462;28;20625;-58
2022/08/16 10:15:58;;;;;;;6.50;5.80;;;;;;;32.07;37.60;97695.00;5092463;28;20168;-59
2022/08/16 10:18:28;;;;;;;6.55;5.20;;;;;;;32.17;37.17;97699.63;5092340;28;20759;-59
2022/08/16 10:20:54;;;;;;;6.30;4.43;;;;;;;32.27;34.14;97699.69;5092775;28;20167;-58
2022/08/16 10:23:21;;;;;;;4.70;4.40;;;;;;;32.36;32.88;97700.81;5093181;28;20180;-59
2022/08/16 10:25:47;;;;;;;4.97;4.15;;;;;;;32.45;33.83;97700.06;5092621;28;20178;-59
2022/08/16 10:28:15;;;;;;;5.43;4.50;;;;;;;32.49;34.00;97693.13;5092186;28;20206;-59
2022/08/16 10:30:42;;;;;;;4.38;4.07;;;;;;;32.66;32.85;97704.47;5092505;28;20172;-58
2022/08/16 10:33:08;;;;;;;5.43;4.38;;;;;;;32.72;32.79;97699.91;5092182;28;20258;-57
2022/08/16 10:35:33;;;;;;;4.53;4.07;;;;;;;32.82;32.84;97702.66;5092219;28;20170;-59
2022/08/16 10:38:00;;;;;;;4.57;4.18;;;;;;;32.90;32.49;97702.97;5092713;28;20250;-59
2022/08/16 10:40:25;;;;;;;6.25;4.40;;;;;;;32.96;32.45;97709.13;5092149;28;20670;-59
2022/08/16 10:42:51;;;;;;;5.05;3.83;;;;;;;32.98;32.36;97705.13;5092360;28;20176;-59
2022/08/16 10:45:17;;;;;;;3.97;3.50;;;;;;;33.08;31.86;97699.78;5092345;28;20175;-59
2022/08/16 10:47:43;;;;;;;4.45;4.05;;;;;;;33.21;31.93;97701.13;5092293;28;20279;-58
2022/08/16 10:50:09;;;;;;;4.32;3.92;;;;;;;33.41;31.54;97702.00;5092317;28;20683;-59
2022/08/16 10:52:34;;;;;;;4.10;3.63;;;;;;;33.47;31.39;97698.28;5091868;28;20211;-59
2022/08/16 10:55:01;;;;;;;6.10;3.92;;;;;;;33.59;31.87;97687.25;5092012;28;20270;-59
2022/08/16 10:57:27;;;;;;;4.35;3.97;;;;;;;33.84;32.18;97698.81;5092230;28;20168;-59
2022/08/16 10:59:53;;;;;;;4.05;3.75;;;;;;;34.02;30.74;97697.44;5091911;28;20633;-59
2022/08/16 11:02:20;;;;;;;8.32;4.70;;;;;;;34.15;31.49;97692.31;5092244;28;20171;-59
2022/08/16 11:04:46;;;;;;;5.53;4.18;;;;;;;34.31;30.95;97693.94;5091799;28;20209;-59
2022/08/16 11:07:11;;;;;;;5.43;4.13;;;;;;;34.41;31.17;97698.47;5092493;28;20227;-59
2022/08/16 11:09:37;;;;;;;4.60;4.20;;;;;;;34.56;30.32;97701.91;5095961;28;20212;-59
2022/08/16 11:12:05;;;;;;;4.95;4.30;;;;;;;34.68;29.83;97701.59;5095935;28;20182;-59
2022/08/16 11:14:31;;;;;;;4.85;4.35;;;;;;;34.67;30.71;97694.63;5096143;28;20565;-59
2022/08/16 11:16:58;;;;;;;5.88;4.63;;;;;;;34.83;30.22;97698.84;5095740;28;20168;-59
2022/08/16 11:19:24;;;;;;;4.40;4.03;;;;;;;34.88;30.55;97698.84;5096028;28;20188;-59
2022/08/16 11:21:50;;;;;;;5.90;4.35;;;;;;;35.03;30.91;97696.88;5095984;28;20561;-58
2022/08/16 11:24:15;;;;;;;5.13;4.38;;;;;;;35.20;30.49;97697.31;5095641;28;20317;-59
2022/08/16 11:26:41;;;;;;;6.43;4.63;;;;;;;35.34;29.64;97697.50;5095479;28;20176;-59
2022/08/16 11:29:08;;;;;;;5.05;4.53;;;;;;;35.49;29.61;97700.88;5095778;28;20180;-59